sensor_id;sensor_type;location;lat;lon;timestamp;P1;durP1;ratioP1;P2;durP2;ratioP2
2698;SDS011;1359;51.798;12.174;2022-09-27T00:00:36;2.60;;;2.20;;
2698;SDS011;1359;51.798;12.174;2022-09-27T00:03:02;3.10;;;1.80;;
2698;SDS011;1359;51.798;12.174;2022-09-27T00:05:27;2.27;;;2.00;;
2698;SDS011;1359;51.798;12.174;2022-09-27T00:07:52;3.40;;;1.73;;
2698;SDS011;1359;51.798;12.174;2022-09-27T00:10:18;2.95;;;2.17;;
2698;SDS011;1359;51.798;12.174;2022-09-27T00:12:43;3.60;;;2.13;;
2698;SDS011;1359;51.798;12.174;2022-09-27T00:15:09;2.67;;;2.23;;
2698;SDS011;1359;51.798;12.174;2022-09-27T00:17:35;3.27;;;2.53;;
2698;SDS011;1359;51.798;12.174;2022-09-27T00:20:00;2.73;;;2.30;;
2698;SDS011;1359;51.798;12.174;2022-09-27T00:22:25;3.13;;;2.20;;
2698;SDS011;1359;51.798;12.174;2022-09-27T00:24:51;2.90;;;2.27;;
2698;SDS011;1359;51.798;12.174;2022-09-27T00:27:16;3.50;;;2.37;;
2698;SDS011;1359;51.798;12.174;2022-09-27T00:29:41;2.80;;;2.60;;
2698;SDS011;1359;51.798;12.174;2022-09-27T00:32:07;2.60;;;1.90;;
2698;SDS011;1359;51.798;12.174;2022-09-27T00:34:32;2.63;;;1.63;;
2698;SDS011;1359;51.798;12.174;2022-09-27T00:36:57;2.80;;;2.17;;
2698;SDS011;1359;51.798;12.174;2022-09-27T00:39:23;5.20;;;2.13;;
2698;SDS011;1359;51.798;12.174;2022-09-27T00:41:48;2.53;;;2.33;;
2698;SDS011;1359;51.798;12.174;2022-09-27T00:47:01;2.40;;;1.90;;
2698;SDS011;1359;51.798;12.174;2022-09-27T00:49:28;2.10;;;1.90;;
2698;SDS011;1359;51.798;12.174;2022-09-27T00:52:02;3.10;;;2.60;;
2698;SDS011;1359;51.798;12.174;2022-09-27T00:54:28;2.57;;;2.37;;
2698;SDS011;1359;51.798;12.174;2022-09-27T00:56:54;3.33;;;2.50;;
2698;SDS011;1359;51.798;12.174;2022-09-27T00:59:27;2.73;;;2.23;;
2698;SDS011;1359;51.798;12.174;2022-09-27T01:01:54;4.27;;;2.23;;
2698;SDS011;1359;51.798;12.174;2022-09-27T01:04:23;5.20;;;2.70;;
2698;SDS011;1359;51.798;12.174;2022-09-27T01:06:50;3.80;;;2.60;;
2698;SDS011;1359;51.798;12.174;2022-09-27T01:09:15;2.90;;;2.60;;
2698;SDS011;1359;51.798;12.174;2022-09-27T01:11:42;5.03;;;2.73;;
2698;SDS011;1359;51.798;12.174;2022-09-27T01:16:51;5.15;;;2.45;;
2698;SDS011;1359;51.798;12.174;2022-09-27T01:21:57;4.10;;;2.67;;
2698;SDS011;1359;51.798;12.174;2022-09-27T01:24:33;3.23;;;2.83;;
2698;SDS011;1359;51.798;12.174;2022-09-27T01:27:13;3.80;;;2.57;;
2698;SDS011;1359;51.798;12.174;2022-09-27T01:29:55;2.97;;;2.50;;
2698;SDS011;1359;51.798;12.174;2022-09-27T01:37:44;2.97;;;2.78;;
2698;SDS011;1359;51.798;12.174;2022-09-27T01:40:21;2.93;;;2.30;;
2698;SDS011;1359;51.798;12.174;2022-09-27T01:45:18;2.37;;;2.17;;
2698;SDS011;1359;51.798;12.174;2022-09-27T01:47:46;2.90;;;2.27;;
2698;SDS011;1359;51.798;12.174;2022-09-27T01:50:25;2.43;;;2.23;;
2698;SDS011;1359;51.798;12.174;2022-09-27T01:52:54;3.70;;;2.53;;
2698;SDS011;1359;51.798;12.174;2022-09-27T01:55:21;3.33;;;2.73;;
2698;SDS011;1359;51.798;12.174;2022-09-27T01:57:54;2.57;;;2.37;;
2698;SDS011;1359;51.798;12.174;2022-09-27T02:00:20;2.73;;;2.27;;
2698;SDS011;1359;51.798;12.174;2022-09-27T02:02:58;3.10;;;2.80;;
2698;SDS011;1359;51.798;12.174;2022-09-27T02:05:28;4.00;;;2.80;;
2698;SDS011;1359;51.798;12.174;2022-09-27T02:07:56;3.20;;;2.63;;
2698;SDS011;1359;51.798;12.174;2022-09-27T02:10:23;4.40;;;1.97;;
2698;SDS011;1359;51.798;12.174;2022-09-27T02:12:57;2.90;;;2.57;;
2698;SDS011;1359;51.798;12.174;2022-09-27T02:15:25;4.03;;;2.53;;
2698;SDS011;1359;51.798;12.174;2022-09-27T02:18:06;6.03;;;2.97;;
2698;SDS011;1359;51.798;12.174;2022-09-27T02:20:38;3.20;;;2.87;;
2698;SDS011;1359;51.798;12.174;2022-09-27T02:23:09;2.47;;;2.27;;
2698;SDS011;1359;51.798;12.174;2022-09-27T02:25:42;3.00;;;2.60;;
2698;SDS011;1359;51.798;12.174;2022-09-27T02:28:16;3.17;;;2.70;;
2698;SDS011;1359;51.798;12.174;2022-09-27T02:30:43;2.80;;;2.50;;
2698;SDS011;1359;51.798;12.174;2022-09-27T02:33:08;3.17;;;2.85;;
2698;SDS011;1359;51.798;12.174;2022-09-27T02:35:34;3.07;;;2.50;;
2698;SDS011;1359;51.798;12.174;2022-09-27T02:37:59;3.93;;;3.00;;
2698;SDS011;1359;51.798;12.174;2022-09-27T02:40:28;5.93;;;3.20;;
2698;SDS011;1359;51.798;12.174;2022-09-27T02:42:53;2.63;;;2.43;;
2698;SDS011;1359;51.798;12.174;2022-09-27T02:45:19;3.40;;;2.47;;
2698;SDS011;1359;51.798;12.174;2022-09-27T02:47:48;4.47;;;2.67;;
2698;SDS011;1359;51.798;12.174;2022-09-27T02:56:02;2.40;;;2.20;;
2698;SDS011;1359;51.798;12.174;2022-09-27T03:01:08;3.33;;;2.93;;
2698;SDS011;1359;51.798;12.174;2022-09-27T03:03:36;2.40;;;2.20;;
2698;SDS011;1359;51.798;12.174;2022-09-27T03:06:04;2.80;;;2.60;;
2698;SDS011;1359;51.798;12.174;2022-09-27T03:08:30;4.07;;;2.63;;
2698;SDS011;1359;51.798;12.174;2022-09-27T03:10:55;2.63;;;2.17;;
2698;SDS011;1359;51.798;12.174;2022-09-27T03:13:20;4.32;;;2.63;;
2698;SDS011;1359;51.798;12.174;2022-09-27T03:15:45;3.70;;;2.60;;
2698;SDS011;1359;51.798;12.174;2022-09-27T03:18:10;2.50;;;2.30;;
2698;SDS011;1359;51.798;12.174;2022-09-27T03:20:36;4.80;;;2.67;;
2698;SDS011;1359;51.798;12.174;2022-09-27T03:23:01;2.42;;;2.22;;
2698;SDS011;1359;51.798;12.174;2022-09-27T03:25:26;3.43;;;2.07;;
2698;SDS011;1359;51.798;12.174;2022-09-27T03:27:51;4.25;;;1.70;;
2698;SDS011;1359;51.798;12.174;2022-09-27T03:30:16;3.95;;;1.80;;
2698;SDS011;1359;51.798;12.174;2022-09-27T03:32:45;3.20;;;2.13;;
2698;SDS011;1359;51.798;12.174;2022-09-27T03:35:10;2.00;;;1.80;;
2698;SDS011;1359;51.798;12.174;2022-09-27T03:37:36;2.27;;;2.07;;
2698;SDS011;1359;51.798;12.174;2022-09-27T03:40:01;2.03;;;1.83;;
2698;SDS011;1359;51.798;12.174;2022-09-27T03:42:27;3.13;;;2.00;;
2698;SDS011;1359;51.798;12.174;2022-09-27T03:44:52;2.30;;;2.10;;
2698;SDS011;1359;51.798;12.174;2022-09-27T03:47:17;2.03;;;1.70;;
2698;SDS011;1359;51.798;12.174;2022-09-27T03:49:43;2.07;;;1.77;;
2698;SDS011;1359;51.798;12.174;2022-09-27T03:52:08;1.97;;;1.77;;
2698;SDS011;1359;51.798;12.174;2022-09-27T03:54:33;3.50;;;1.90;;
2698;SDS011;1359;51.798;12.174;2022-09-27T03:56:58;2.38;;;2.17;;
2698;SDS011;1359;51.798;12.174;2022-09-27T03:59:24;3.33;;;1.93;;
2698;SDS011;1359;51.798;12.174;2022-09-27T04:01:49;1.60;;;1.42;;
2698;SDS011;1359;51.798;12.174;2022-09-27T04:04:14;6.68;;;2.08;;
2698;SDS011;1359;51.798;12.174;2022-09-27T04:06:39;2.23;;;1.97;;
2698;SDS011;1359;51.798;12.174;2022-09-27T04:09:04;3.15;;;1.63;;
2698;SDS011;1359;51.798;12.174;2022-09-27T04:11:29;2.77;;;2.10;;
2698;SDS011;1359;51.798;12.174;2022-09-27T04:13:55;2.25;;;1.52;;
2698;SDS011;1359;51.798;12.174;2022-09-27T04:16:20;1.97;;;1.77;;
2698;SDS011;1359;51.798;12.174;2022-09-27T04:18:45;2.20;;;2.00;;
2698;SDS011;1359;51.798;12.174;2022-09-27T04:21:10;2.10;;;1.87;;
2698;SDS011;1359;51.798;12.174;2022-09-27T04:23:35;2.80;;;1.87;;
2698;SDS011;1359;51.798;12.174;2022-09-27T04:26:01;2.90;;;1.40;;
2698;SDS011;1359;51.798;12.174;2022-09-27T04:28:26;3.93;;;1.57;;
2698;SDS011;1359;51.798;12.174;2022-09-27T04:30:54;7.20;;;2.67;;
2698;SDS011;1359;51.798;12.174;2022-09-27T04:33:19;2.40;;;1.90;;
2698;SDS011;1359;51.798;12.174;2022-09-27T04:35:44;3.67;;;2.00;;
2698;SDS011;1359;51.798;12.174;2022-09-27T04:38:28;2.23;;;2.03;;
2698;SDS011;1359;51.798;12.174;2022-09-27T04:40:54;2.30;;;2.10;;
2698;SDS011;1359;51.798;12.174;2022-09-27T04:43:19;3.58;;;2.00;;
2698;SDS011;1359;51.798;12.174;2022-09-27T04:45:44;4.30;;;2.53;;
2698;SDS011;1359;51.798;12.174;2022-09-27T04:48:09;2.40;;;2.20;;
2698;SDS011;1359;51.798;12.174;2022-09-27T04:50:35;3.40;;;1.93;;
2698;SDS011;1359;51.798;12.174;2022-09-27T04:53:00;2.10;;;1.90;;
2698;SDS011;1359;51.798;12.174;2022-09-27T04:55:25;2.20;;;1.70;;
2698;SDS011;1359;51.798;12.174;2022-09-27T04:57:51;2.60;;;1.97;;
2698;SDS011;1359;51.798;12.174;2022-09-27T05:00:16;3.38;;;1.80;;
2698;SDS011;1359;51.798;12.174;2022-09-27T05:02:42;3.73;;;2.20;;
2698;SDS011;1359;51.798;12.174;2022-09-27T05:05:08;2.20;;;1.80;;
2698;SDS011;1359;51.798;12.174;2022-09-27T05:07:34;3.20;;;2.47;;
2698;SDS011;1359;51.798;12.174;2022-09-27T05:09:59;3.63;;;3.30;;
2698;SDS011;1359;51.798;12.174;2022-09-27T05:12:24;3.65;;;2.40;;
2698;SDS011;1359;51.798;12.174;2022-09-27T05:14:50;3.40;;;3.10;;
2698;SDS011;1359;51.798;12.174;2022-09-27T05:17:15;3.73;;;2.63;;
2698;SDS011;1359;51.798;12.174;2022-09-27T05:19:42;2.40;;;2.13;;
2698;SDS011;1359;51.798;12.174;2022-09-27T05:22:07;3.53;;;2.10;;
2698;SDS011;1359;51.798;12.174;2022-09-27T05:24:32;4.43;;;2.47;;
2698;SDS011;1359;51.798;12.174;2022-09-27T05:27:01;2.67;;;2.47;;
2698;SDS011;1359;51.798;12.174;2022-09-27T05:29:26;1.90;;;1.70;;
2698;SDS011;1359;51.798;12.174;2022-09-27T05:31:51;2.40;;;2.20;;
2698;SDS011;1359;51.798;12.174;2022-09-27T05:34:16;2.80;;;2.50;;
2698;SDS011;1359;51.798;12.174;2022-09-27T05:36:45;3.70;;;3.40;;
2698;SDS011;1359;51.798;12.174;2022-09-27T05:39:10;4.30;;;3.67;;
2698;SDS011;1359;51.798;12.174;2022-09-27T05:41:36;5.22;;;2.42;;
2698;SDS011;1359;51.798;12.174;2022-09-27T05:44:01;3.77;;;2.97;;
2698;SDS011;1359;51.798;12.174;2022-09-27T05:46:26;2.40;;;2.20;;
2698;SDS011;1359;51.798;12.174;2022-09-27T05:48:51;2.33;;;2.13;;
2698;SDS011;1359;51.798;12.174;2022-09-27T05:51:16;2.47;;;2.28;;
2698;SDS011;1359;51.798;12.174;2022-09-27T05:53:43;2.20;;;1.93;;
2698;SDS011;1359;51.798;12.174;2022-09-27T05:56:08;3.45;;;2.03;;
2698;SDS011;1359;51.798;12.174;2022-09-27T05:58:33;2.30;;;2.10;;
2698;SDS011;1359;51.798;12.174;2022-09-27T06:00:58;2.60;;;2.40;;
2698;SDS011;1359;51.798;12.174;2022-09-27T06:03:23;3.50;;;2.70;;
2698;SDS011;1359;51.798;12.174;2022-09-27T06:05:49;4.05;;;2.40;;
2698;SDS011;1359;51.798;12.174;2022-09-27T06:08:14;3.35;;;2.90;;
2698;SDS011;1359;51.798;12.174;2022-09-27T06:10:39;2.23;;;2.03;;
2698;SDS011;1359;51.798;12.174;2022-09-27T06:13:06;2.00;;;1.63;;
2698;SDS011;1359;51.798;12.174;2022-09-27T06:15:32;9.60;;;2.37;;
2698;SDS011;1359;51.798;12.174;2022-09-27T06:18:01;2.53;;;2.33;;
2698;SDS011;1359;51.798;12.174;2022-09-27T06:20:27;2.57;;;2.37;;
2698;SDS011;1359;51.798;12.174;2022-09-27T06:22:52;3.35;;;1.83;;
2698;SDS011;1359;51.798;12.174;2022-09-27T06:25:18;2.63;;;2.43;;
2698;SDS011;1359;51.798;12.174;2022-09-27T06:27:44;2.33;;;2.13;;
2698;SDS011;1359;51.798;12.174;2022-09-27T06:30:09;2.67;;;2.47;;
2698;SDS011;1359;51.798;12.174;2022-09-27T06:32:36;2.83;;;2.23;;
2698;SDS011;1359;51.798;12.174;2022-09-27T06:35:01;4.15;;;2.33;;
2698;SDS011;1359;51.798;12.174;2022-09-27T06:37:29;2.87;;;2.57;;
2698;SDS011;1359;51.798;12.174;2022-09-27T06:39:54;2.67;;;2.47;;
2698;SDS011;1359;51.798;12.174;2022-09-27T06:42:19;7.80;;;2.27;;
2698;SDS011;1359;51.798;12.174;2022-09-27T06:44:45;2.80;;;2.50;;
2698;SDS011;1359;51.798;12.174;2022-09-27T06:47:13;5.23;;;2.30;;
2698;SDS011;1359;51.798;12.174;2022-09-27T06:49:39;3.70;;;2.40;;
2698;SDS011;1359;51.798;12.174;2022-09-27T06:52:04;2.58;;;2.35;;
2698;SDS011;1359;51.798;12.174;2022-09-27T06:54:30;2.43;;;2.23;;
2698;SDS011;1359;51.798;12.174;2022-09-27T06:56:55;3.53;;;2.70;;
2698;SDS011;1359;51.798;12.174;2022-09-27T06:59:20;3.30;;;2.55;;
2698;SDS011;1359;51.798;12.174;2022-09-27T07:02:04;2.43;;;2.23;;
2698;SDS011;1359;51.798;12.174;2022-09-27T07:04:29;2.50;;;2.20;;
2698;SDS011;1359;51.798;12.174;2022-09-27T07:06:54;2.67;;;1.93;;
2698;SDS011;1359;51.798;12.174;2022-09-27T07:09:19;2.10;;;1.90;;
2698;SDS011;1359;51.798;12.174;2022-09-27T07:11:44;2.85;;;2.00;;
2698;SDS011;1359;51.798;12.174;2022-09-27T07:14:10;4.27;;;1.63;;
2698;SDS011;1359;51.798;12.174;2022-09-27T07:16:35;2.13;;;1.53;;
2698;SDS011;1359;51.798;12.174;2022-09-27T07:19:01;3.17;;;2.50;;
2698;SDS011;1359;51.798;12.174;2022-09-27T07:21:26;3.17;;;2.60;;
2698;SDS011;1359;51.798;12.174;2022-09-27T07:23:51;1.90;;;1.70;;
2698;SDS011;1359;51.798;12.174;2022-09-27T07:26:16;4.20;;;2.30;;
2698;SDS011;1359;51.798;12.174;2022-09-27T07:28:41;3.20;;;2.00;;
2698;SDS011;1359;51.798;12.174;2022-09-27T07:31:07;4.53;;;1.83;;
2698;SDS011;1359;51.798;12.174;2022-09-27T07:33:33;5.13;;;1.50;;
2698;SDS011;1359;51.798;12.174;2022-09-27T07:35:58;1.70;;;1.50;;
2698;SDS011;1359;51.798;12.174;2022-09-27T07:38:23;2.30;;;1.80;;
2698;SDS011;1359;51.798;12.174;2022-09-27T07:40:49;1.98;;;1.77;;
2698;SDS011;1359;51.798;12.174;2022-09-27T07:43:14;3.70;;;1.67;;
2698;SDS011;1359;51.798;12.174;2022-09-27T07:45:39;4.00;;;1.53;;
2698;SDS011;1359;51.798;12.174;2022-09-27T07:48:05;5.40;;;1.73;;
2698;SDS011;1359;51.798;12.174;2022-09-27T07:50:30;4.20;;;1.70;;
2698;SDS011;1359;51.798;12.174;2022-09-27T07:52:56;3.10;;;1.50;;
2698;SDS011;1359;51.798;12.174;2022-09-27T07:55:21;1.77;;;1.33;;
2698;SDS011;1359;51.798;12.174;2022-09-27T07:57:48;1.70;;;1.47;;
2698;SDS011;1359;51.798;12.174;2022-09-27T08:00:15;3.57;;;1.27;;
2698;SDS011;1359;51.798;12.174;2022-09-27T08:02:40;3.10;;;1.50;;
2698;SDS011;1359;51.798;12.174;2022-09-27T08:05:06;2.40;;;1.63;;
2698;SDS011;1359;51.798;12.174;2022-09-27T08:07:31;5.63;;;2.00;;
2698;SDS011;1359;51.798;12.174;2022-09-27T08:09:56;2.00;;;1.77;;
2698;SDS011;1359;51.798;12.174;2022-09-27T08:12:22;2.83;;;1.80;;
2698;SDS011;1359;51.798;12.174;2022-09-27T08:14:47;5.00;;;1.67;;
2698;SDS011;1359;51.798;12.174;2022-09-27T08:17:12;5.30;;;1.40;;
2698;SDS011;1359;51.798;12.174;2022-09-27T08:19:38;5.30;;;1.45;;
2698;SDS011;1359;51.798;12.174;2022-09-27T08:22:04;5.57;;;1.47;;
2698;SDS011;1359;51.798;12.174;2022-09-27T08:24:29;1.80;;;1.60;;
2698;SDS011;1359;51.798;12.174;2022-09-27T08:26:54;2.80;;;1.50;;
2698;SDS011;1359;51.798;12.174;2022-09-27T08:29:20;2.47;;;1.70;;
2698;SDS011;1359;51.798;12.174;2022-09-27T08:31:45;3.40;;;1.80;;
2698;SDS011;1359;51.798;12.174;2022-09-27T08:34:10;2.50;;;1.63;;
2698;SDS011;1359;51.798;12.174;2022-09-27T08:36:35;1.67;;;1.30;;
2698;SDS011;1359;51.798;12.174;2022-09-27T08:39:01;4.13;;;1.70;;
2698;SDS011;1359;51.798;12.174;2022-09-27T08:46:37;7.73;;;1.70;;
2698;SDS011;1359;51.798;12.174;2022-09-27T08:49:05;2.40;;;1.43;;
2698;SDS011;1359;51.798;12.174;2022-09-27T08:51:33;1.77;;;1.67;;
2698;SDS011;1359;51.798;12.174;2022-09-27T08:54:15;1.83;;;1.43;;
2698;SDS011;1359;51.798;12.174;2022-09-27T08:56:44;1.50;;;1.20;;
2698;SDS011;1359;51.798;12.174;2022-09-27T08:59:11;2.17;;;1.43;;
2698;SDS011;1359;51.798;12.174;2022-09-27T09:01:38;2.70;;;1.37;;
2698;SDS011;1359;51.798;12.174;2022-09-27T09:04:03;2.17;;;1.60;;
2698;SDS011;1359;51.798;12.174;2022-09-27T09:06:38;2.77;;;1.13;;
2698;SDS011;1359;51.798;12.174;2022-09-27T09:17:34;1.70;;;1.60;;
2698;SDS011;1359;51.798;12.174;2022-09-27T09:20:09;2.00;;;1.80;;
2698;SDS011;1359;51.798;12.174;2022-09-27T09:22:52;3.23;;;2.20;;
2698;SDS011;1359;51.798;12.174;2022-09-27T09:28:10;2.00;;;1.73;;
2698;SDS011;1359;51.798;12.174;2022-09-27T09:30:46;2.03;;;1.83;;
2698;SDS011;1359;51.798;12.174;2022-09-27T09:35:51;2.60;;;1.33;;
2698;SDS011;1359;51.798;12.174;2022-09-27T09:38:22;2.00;;;1.50;;
2698;SDS011;1359;51.798;12.174;2022-09-27T09:40:55;3.20;;;1.90;;
2698;SDS011;1359;51.798;12.174;2022-09-27T09:43:26;2.13;;;1.73;;
2698;SDS011;1359;51.798;12.174;2022-09-27T09:46:15;2.60;;;2.40;;
2698;SDS011;1359;51.798;12.174;2022-09-27T09:48:54;3.60;;;2.10;;
2698;SDS011;1359;51.798;12.174;2022-09-27T09:51:32;2.10;;;1.90;;
2698;SDS011;1359;51.798;12.174;2022-09-27T09:54:18;3.23;;;2.80;;
2698;SDS011;1359;51.798;12.174;2022-09-27T09:56:50;3.17;;;2.27;;
2698;SDS011;1359;51.798;12.174;2022-09-27T09:59:18;2.30;;;2.00;;
2698;SDS011;1359;51.798;12.174;2022-09-27T10:01:45;1.70;;;1.60;;
2698;SDS011;1359;51.798;12.174;2022-09-27T10:04:17;3.30;;;1.97;;
2698;SDS011;1359;51.798;12.174;2022-09-27T10:06:44;2.63;;;2.20;;
2698;SDS011;1359;51.798;12.174;2022-09-27T10:09:10;2.93;;;2.73;;
2698;SDS011;1359;51.798;12.174;2022-09-27T10:11:40;8.23;;;2.37;;
2698;SDS011;1359;51.798;12.174;2022-09-27T10:14:10;2.73;;;2.53;;
2698;SDS011;1359;51.798;12.174;2022-09-27T10:16:36;2.40;;;2.00;;
2698;SDS011;1359;51.798;12.174;2022-09-27T10:19:02;3.27;;;2.10;;
2698;SDS011;1359;51.798;12.174;2022-09-27T10:21:27;2.00;;;1.60;;
2698;SDS011;1359;51.798;12.174;2022-09-27T10:24:12;3.40;;;2.10;;
2698;SDS011;1359;51.798;12.174;2022-09-27T10:26:38;2.70;;;2.40;;
2698;SDS011;1359;51.798;12.174;2022-09-27T10:31:58;3.67;;;3.37;;
2698;SDS011;1359;51.798;12.174;2022-09-27T10:34:26;3.70;;;1.97;;
2698;SDS011;1359;51.798;12.174;2022-09-27T10:39:34;5.87;;;2.03;;
2698;SDS011;1359;51.798;12.174;2022-09-27T10:42:00;1.70;;;1.20;;
2698;SDS011;1359;51.798;12.174;2022-09-27T10:44:29;2.97;;;2.30;;
2698;SDS011;1359;51.798;12.174;2022-09-27T10:47:06;2.20;;;1.43;;
2698;SDS011;1359;51.798;12.174;2022-09-27T10:49:36;2.00;;;1.70;;
2698;SDS011;1359;51.798;12.174;2022-09-27T10:52:15;2.10;;;1.70;;
2698;SDS011;1359;51.798;12.174;2022-09-27T10:54:43;4.57;;;3.47;;
2698;SDS011;1359;51.798;12.174;2022-09-27T10:57:20;3.40;;;2.07;;
2698;SDS011;1359;51.798;12.174;2022-09-27T10:59:49;1.53;;;1.10;;
2698;SDS011;1359;51.798;12.174;2022-09-27T11:02:23;4.17;;;1.67;;
2698;SDS011;1359;51.798;12.174;2022-09-27T11:07:34;7.47;;;1.30;;
2698;SDS011;1359;51.798;12.174;2022-09-27T11:09:59;3.10;;;2.37;;
2698;SDS011;1359;51.798;12.174;2022-09-27T11:12:27;2.40;;;1.27;;
2698;SDS011;1359;51.798;12.174;2022-09-27T11:15:01;4.00;;;1.40;;
2698;SDS011;1359;51.798;12.174;2022-09-27T11:17:45;1.50;;;1.13;;
2698;SDS011;1359;51.798;12.174;2022-09-27T11:20:21;2.53;;;1.57;;
2698;SDS011;1359;51.798;12.174;2022-09-27T11:40:59;3.00;;;1.63;;
2698;SDS011;1359;51.798;12.174;2022-09-27T11:43:35;2.20;;;1.70;;
2698;SDS011;1359;51.798;12.174;2022-09-27T11:46:13;2.23;;;1.10;;
2698;SDS011;1359;51.798;12.174;2022-09-27T11:56:35;5.77;;;1.70;;
2698;SDS011;1359;51.798;12.174;2022-09-27T11:59:04;2.20;;;1.40;;
2698;SDS011;1359;51.798;12.174;2022-09-27T12:01:37;2.20;;;1.80;;
2698;SDS011;1359;51.798;12.174;2022-09-27T12:04:11;2.50;;;1.30;;
2698;SDS011;1359;51.798;12.174;2022-09-27T12:09:29;3.40;;;1.30;;
2698;SDS011;1359;51.798;12.174;2022-09-27T12:11:58;1.93;;;1.30;;
2698;SDS011;1359;51.798;12.174;2022-09-27T12:14:28;2.00;;;1.80;;
2698;SDS011;1359;51.798;12.174;2022-09-27T12:16:57;2.27;;;1.60;;
2698;SDS011;1359;51.798;12.174;2022-09-27T12:19:27;2.80;;;1.50;;
2698;SDS011;1359;51.798;12.174;2022-09-27T12:21:55;2.47;;;1.40;;
2698;SDS011;1359;51.798;12.174;2022-09-27T12:24:21;1.70;;;1.27;;
2698;SDS011;1359;51.798;12.174;2022-09-27T12:26:48;3.20;;;1.70;;
2698;SDS011;1359;51.798;12.174;2022-09-27T12:29:19;3.60;;;1.53;;
2698;SDS011;1359;51.798;12.174;2022-09-27T12:32:03;1.93;;;1.50;;
2698;SDS011;1359;51.798;12.174;2022-09-27T12:34:34;2.47;;;1.40;;
2698;SDS011;1359;51.798;12.174;2022-09-27T12:39:39;1.70;;;1.48;;
2698;SDS011;1359;51.798;12.174;2022-09-27T12:42:11;2.00;;;1.40;;
2698;SDS011;1359;51.798;12.174;2022-09-27T12:44:38;3.20;;;1.80;;
2698;SDS011;1359;51.798;12.174;2022-09-27T12:52:03;2.20;;;1.60;;
2698;SDS011;1359;51.798;12.174;2022-09-27T13:02:26;4.70;;;1.70;;
2698;SDS011;1359;51.798;12.174;2022-09-27T13:05:02;2.20;;;1.13;;
2698;SDS011;1359;51.798;12.174;2022-09-27T13:12:47;1.77;;;1.50;;
2698;SDS011;1359;51.798;12.174;2022-09-27T13:15:14;1.60;;;1.20;;
2698;SDS011;1359;51.798;12.174;2022-09-27T13:22:51;4.03;;;1.20;;
2698;SDS011;1359;51.798;12.174;2022-09-27T13:28:02;2.17;;;1.17;;
2698;SDS011;1359;51.798;12.174;2022-09-27T13:30:48;2.00;;;1.80;;
2698;SDS011;1359;51.798;12.174;2022-09-27T13:35:40;2.03;;;1.40;;
2698;SDS011;1359;51.798;12.174;2022-09-27T13:38:17;1.60;;;1.38;;
2698;SDS011;1359;51.798;12.174;2022-09-27T13:40:44;2.33;;;1.50;;
2698;SDS011;1359;51.798;12.174;2022-09-27T13:45:39;1.52;;;1.40;;
2698;SDS011;1359;51.798;12.174;2022-09-27T13:48:07;2.53;;;1.33;;
2698;SDS011;1359;51.798;12.174;2022-09-27T13:50:37;1.93;;;1.57;;
2698;SDS011;1359;51.798;12.174;2022-09-27T13:53:05;1.67;;;1.20;;
2698;SDS011;1359;51.798;12.174;2022-09-27T13:55:41;1.60;;;1.23;;
2698;SDS011;1359;51.798;12.174;2022-09-27T14:00:51;1.40;;;1.10;;
2698;SDS011;1359;51.798;12.174;2022-09-27T14:03:27;2.67;;;1.20;;
2698;SDS011;1359;51.798;12.174;2022-09-27T14:05:54;5.90;;;2.10;;
2698;SDS011;1359;51.798;12.174;2022-09-27T14:08:24;2.00;;;1.63;;
2698;SDS011;1359;51.798;12.174;2022-09-27T14:10:51;2.37;;;1.30;;
2698;SDS011;1359;51.798;12.174;2022-09-27T14:13:17;9.53;;;1.47;;
2698;SDS011;1359;51.798;12.174;2022-09-27T14:15:44;1.60;;;1.30;;
2698;SDS011;1359;51.798;12.174;2022-09-27T14:18:10;2.43;;;1.20;;
2698;SDS011;1359;51.798;12.174;2022-09-27T14:20:40;1.93;;;1.73;;
2698;SDS011;1359;51.798;12.174;2022-09-27T14:23:12;2.50;;;1.50;;
2698;SDS011;1359;51.798;12.174;2022-09-27T14:25:38;10.07;;;6.30;;
2698;SDS011;1359;51.798;12.174;2022-09-27T14:28:17;7.97;;;5.10;;
2698;SDS011;1359;51.798;12.174;2022-09-27T14:30:43;4.03;;;3.30;;
2698;SDS011;1359;51.798;12.174;2022-09-27T14:33:24;3.03;;;2.47;;
2698;SDS011;1359;51.798;12.174;2022-09-27T14:35:51;12.70;;;7.60;;
2698;SDS011;1359;51.798;12.174;2022-09-27T14:38:34;2.67;;;2.33;;
2698;SDS011;1359;51.798;12.174;2022-09-27T14:41:02;4.50;;;3.13;;
2698;SDS011;1359;51.798;12.174;2022-09-27T14:43:27;7.10;;;3.80;;
2698;SDS011;1359;51.798;12.174;2022-09-27T14:45:57;9.23;;;4.50;;
2698;SDS011;1359;51.798;12.174;2022-09-27T14:48:30;5.53;;;4.87;;
2698;SDS011;1359;51.798;12.174;2022-09-27T14:51:00;7.60;;;5.63;;
2698;SDS011;1359;51.798;12.174;2022-09-27T14:53:29;8.80;;;3.80;;
2698;SDS011;1359;51.798;12.174;2022-09-27T14:55:55;4.40;;;4.00;;
2698;SDS011;1359;51.798;12.174;2022-09-27T14:58:21;7.87;;;3.10;;
2698;SDS011;1359;51.798;12.174;2022-09-27T15:00:47;7.33;;;4.73;;
2698;SDS011;1359;51.798;12.174;2022-09-27T15:03:19;4.47;;;3.43;;
2698;SDS011;1359;51.798;12.174;2022-09-27T15:05:48;5.20;;;2.87;;
2698;SDS011;1359;51.798;12.174;2022-09-27T15:08:14;3.50;;;3.17;;
2698;SDS011;1359;51.798;12.174;2022-09-27T15:10:39;5.27;;;4.50;;
2698;SDS011;1359;51.798;12.174;2022-09-27T15:13:05;5.97;;;4.97;;
2698;SDS011;1359;51.798;12.174;2022-09-27T15:15:34;3.87;;;3.57;;
2698;SDS011;1359;51.798;12.174;2022-09-27T15:18:00;11.87;;;4.50;;
2698;SDS011;1359;51.798;12.174;2022-09-27T15:20:26;4.47;;;3.83;;
2698;SDS011;1359;51.798;12.174;2022-09-27T15:22:56;3.73;;;3.43;;
2698;SDS011;1359;51.798;12.174;2022-09-27T15:25:23;11.33;;;6.50;;
2698;SDS011;1359;51.798;12.174;2022-09-27T15:27:56;6.13;;;4.20;;
2698;SDS011;1359;51.798;12.174;2022-09-27T15:30:28;3.23;;;2.90;;
2698;SDS011;1359;51.798;12.174;2022-09-27T15:32:57;5.97;;;5.07;;
2698;SDS011;1359;51.798;12.174;2022-09-27T15:35:23;5.03;;;4.53;;
2698;SDS011;1359;51.798;12.174;2022-09-27T15:37:49;9.63;;;6.93;;
2698;SDS011;1359;51.798;12.174;2022-09-27T15:45:39;4.33;;;3.93;;
2698;SDS011;1359;51.798;12.174;2022-09-27T15:48:16;4.63;;;4.23;;
2698;SDS011;1359;51.798;12.174;2022-09-27T15:50:41;4.57;;;3.43;;
2698;SDS011;1359;51.798;12.174;2022-09-27T15:53:07;6.20;;;3.40;;
2698;SDS011;1359;51.798;12.174;2022-09-27T15:55:34;5.13;;;2.93;;
2698;SDS011;1359;51.798;12.174;2022-09-27T15:58:02;3.20;;;2.90;;
2698;SDS011;1359;51.798;12.174;2022-09-27T16:00:28;3.70;;;3.27;;
2698;SDS011;1359;51.798;12.174;2022-09-27T16:02:53;2.93;;;2.70;;
2698;SDS011;1359;51.798;12.174;2022-09-27T16:05:19;5.50;;;4.10;;
2698;SDS011;1359;51.798;12.174;2022-09-27T16:07:44;5.50;;;2.70;;
2698;SDS011;1359;51.798;12.174;2022-09-27T16:12:34;2.90;;;2.17;;
2698;SDS011;1359;51.798;12.174;2022-09-27T16:15:00;3.30;;;2.63;;
2698;SDS011;1359;51.798;12.174;2022-09-27T16:17:25;2.10;;;1.90;;
2698;SDS011;1359;51.798;12.174;2022-09-27T16:19:50;6.57;;;3.28;;
2698;SDS011;1359;51.798;12.174;2022-09-27T16:22:15;3.28;;;2.97;;
2698;SDS011;1359;51.798;12.174;2022-09-27T16:24:40;3.40;;;2.30;;
2698;SDS011;1359;51.798;12.174;2022-09-27T16:27:05;3.63;;;3.33;;
2698;SDS011;1359;51.798;12.174;2022-09-27T16:29:30;3.45;;;2.55;;
2698;SDS011;1359;51.798;12.174;2022-09-27T16:31:56;3.67;;;3.20;;
2698;SDS011;1359;51.798;12.174;2022-09-27T16:34:21;3.00;;;2.47;;
2698;SDS011;1359;51.798;12.174;2022-09-27T16:36:47;3.37;;;3.10;;
2698;SDS011;1359;51.798;12.174;2022-09-27T16:39:13;3.13;;;2.93;;
2698;SDS011;1359;51.798;12.174;2022-09-27T16:41:38;2.73;;;2.53;;
2698;SDS011;1359;51.798;12.174;2022-09-27T16:44:14;4.20;;;2.83;;
2698;SDS011;1359;51.798;12.174;2022-09-27T16:46:41;4.80;;;3.07;;
2698;SDS011;1359;51.798;12.174;2022-09-27T16:49:07;3.07;;;2.87;;
2698;SDS011;1359;51.798;12.174;2022-09-27T16:51:52;3.17;;;2.97;;
2698;SDS011;1359;51.798;12.174;2022-09-27T16:54:23;3.57;;;3.27;;
2698;SDS011;1359;51.798;12.174;2022-09-27T16:56:49;4.20;;;3.10;;
2698;SDS011;1359;51.798;12.174;2022-09-27T16:59:14;3.72;;;3.42;;
2698;SDS011;1359;51.798;12.174;2022-09-27T17:01:39;4.68;;;4.15;;
2698;SDS011;1359;51.798;12.174;2022-09-27T17:04:05;2.73;;;2.53;;
2698;SDS011;1359;51.798;12.174;2022-09-27T17:06:30;3.17;;;2.97;;
2698;SDS011;1359;51.798;12.174;2022-09-27T17:08:56;7.40;;;5.43;;